Weather at Njoro Country Club Airport

Public forecast

Using degrees Celsius for public forecast. Weather courtesy of forecast.io.

Closest aviation weather report (METAR) to Njoro Country Club Airport

Closest report is Nakuru Airport, 14.7 nm (27.2 km) E.

2024/02/24 16:00 (retrieved 1 hour ago)

HKNK 241600Z 00000KT 9999 BKN019 21/12

Closest aviation forecast (TAF) to Njoro Country Club Airport

Closest forecast is Eldoret International Airport, 60.3 nm (111.7 km) NW.

2024/02/24 12:54 (retrieved 4 hours ago)

TAF TAF HKEL 241100Z 2412/2518 12010KT 9999 FEW023CB SCT024 PROB40 TEMPO 2413/2417 -TSRA FEW019CB SCT020 BKN080 BECMG 2420/2423 NSW CAVOK BECMG 2508/2511 09010KT SCT024